Longmont, CO (80501)

3:59 AM MDT on May 22, 2019 (GMT -0600)
Historic East Side | | Change Station
Active Advisory: Freeze Warning

Elev 5000 ft 40.17 °N, 105.10 °W | Updated 15 minutes ago

Overcast
Overcast
38.1 °F
Feels Like 38 °F
N
0.7
Wind Variable Wind from West
Gusts 1.3 mph

Today
High -- | Low -- °F
--% Chance of Precip.
Yesterday
High -- | Low -- °F
Precip. -- in
Pressure 29.64 in
Visibility 10.0 miles
Clouds Overcast 3300 ft
Windchill 38 °F
Dew Point 32 °F
Humidity 83%
Rainfall 0.00 in
Snow Depth Not available.
5:39 AM 8:15 PM
Waning Gibbous, 87% visible
METAR KLMO 220955Z AUTO 00000KT 10SM OVC033 03/00 A2964 RMK AO2 T00290004
Pressure 29.64 in
Visibility 10.0 miles
Clouds Overcast 3300 ft
Windchill 38 °F
Dew Point 32 °F
Humidity 83%
Rainfall 0.00 in
Snow Depth Not available.
5:39 AM 8:15 PM
Waning Gibbous, 87% visible
METAR KLMO 220955Z AUTO 00000KT 10SM OVC033 03/00 A2964 RMK AO2 T00290004

Get Your Daily Forecast Email!

Thanks for signing up!

Be on the lookout for a verification email in your inbox.

You'll start receiving severe weather alerts in your inbox..

×

10-Day Weather Forecast

Almanac

Astronomy

May. 22, 2019 Rise Set
Actual Time
Civil Twilight
Nautical Twilight
Astronomical Twilight
Moon
Length of Visible Light
Length of Day
Tomorrow will be .
, % of the Moon is Illuminated

Today's Extremes

State Highs State Lows

Community

WunderPhotos

Category 6

Welcome to Category 6. This is the collective home for Weather Underground's featured writeups by Dr. Jeff Masters (right), Bob Henson (left), Chris Burt, and other regular contributors.

Nearby

Air Quality

  Air Quality AQ Index Pollutant
Not available.

Snow Depth

Station Depth Elevation

Earthquake Activity

City Distance Mag. Time & Date
Minimum magnitude displayed is 2.5.

Coastal Water Temperatures

Place Temperature

Stations

Nearby Weather Stations

Station Location Temp. Windchill Dew Point Humidity Wind Precip. Elev Updated Type
                   

Watches & Warnings

Freeze Warning
Issued: 8:54 PM MDT May. 21, 2019 – National Weather Service

... Freeze warning remains in effect until 8 am MDT Wednesday...

* temperatures... falling into the upper 20s and lower 30s. Lower
to mid 20s possible over the Palmer Divide area.

* Timing... until 8 am Wednesday morning.

* Impacts... freezing temperatures could kill sensitive
vegetation and damage unprotected outdoor plumbing.

Precautionary/preparedness actions...

A freeze warning means sub-freezing temperatures are imminent or
highly likely. These conditions will kill crops and other
sensitive vegetation.